sensor_id;sensor_type;location;lat;lon;timestamp;P1;durP1;ratioP1;P2;durP2;ratioP2
7515;SDS011;3799;47.184;8.538;2023-11-19T00:01:44;2.70;;;1.20;;
7515;SDS011;3799;47.184;8.538;2023-11-19T00:04:13;2.90;;;1.33;;
7515;SDS011;3799;47.184;8.538;2023-11-19T00:06:41;1.90;;;1.00;;
7515;SDS011;3799;47.184;8.538;2023-11-19T00:09:08;3.08;;;1.17;;
7515;SDS011;3799;47.184;8.538;2023-11-19T00:11:35;2.80;;;1.52;;
7515;SDS011;3799;47.184;8.538;2023-11-19T00:14:05;2.97;;;1.10;;
7515;SDS011;3799;47.184;8.538;2023-11-19T00:16:35;5.30;;;1.80;;
7515;SDS011;3799;47.184;8.538;2023-11-19T00:19:02;2.90;;;1.38;;
7515;SDS011;3799;47.184;8.538;2023-11-19T00:21:31;1.55;;;1.23;;
7515;SDS011;3799;47.184;8.538;2023-11-19T00:23:59;3.28;;;1.48;;
7515;SDS011;3799;47.184;8.538;2023-11-19T00:26:27;2.53;;;1.10;;
7515;SDS011;3799;47.184;8.538;2023-11-19T00:28:54;2.20;;;1.20;;
7515;SDS011;3799;47.184;8.538;2023-11-19T00:31:22;1.90;;;1.02;;
7515;SDS011;3799;47.184;8.538;2023-11-19T00:33:49;1.98;;;0.90;;
7515;SDS011;3799;47.184;8.538;2023-11-19T00:36:16;4.95;;;1.00;;
7515;SDS011;3799;47.184;8.538;2023-11-19T00:38:44;2.45;;;1.40;;
7515;SDS011;3799;47.184;8.538;2023-11-19T00:41:11;3.15;;;1.13;;
7515;SDS011;3799;47.184;8.538;2023-11-19T00:43:38;2.78;;;1.15;;
7515;SDS011;3799;47.184;8.538;2023-11-19T00:46:07;2.40;;;1.02;;
7515;SDS011;3799;47.184;8.538;2023-11-19T00:48:34;4.15;;;1.48;;
7515;SDS011;3799;47.184;8.538;2023-11-19T00:51:01;2.92;;;1.35;;
7515;SDS011;3799;47.184;8.538;2023-11-19T00:53:29;4.55;;;1.90;;
7515;SDS011;3799;47.184;8.538;2023-11-19T00:55:57;5.25;;;1.52;;
7515;SDS011;3799;47.184;8.538;2023-11-19T00:58:24;2.80;;;1.20;;
7515;SDS011;3799;47.184;8.538;2023-11-19T01:00:52;2.00;;;0.90;;
7515;SDS011;3799;47.184;8.538;2023-11-19T01:03:19;2.75;;;1.02;;
7515;SDS011;3799;47.184;8.538;2023-11-19T01:05:46;1.85;;;0.93;;
7515;SDS011;3799;47.184;8.538;2023-11-19T01:08:14;2.30;;;0.80;;
7515;SDS011;3799;47.184;8.538;2023-11-19T01:10:42;1.42;;;0.75;;
7515;SDS011;3799;47.184;8.538;2023-11-19T01:13:10;1.52;;;0.63;;
7515;SDS011;3799;47.184;8.538;2023-11-19T01:15:37;1.75;;;0.70;;
7515;SDS011;3799;47.184;8.538;2023-11-19T01:18:05;1.45;;;0.55;;
7515;SDS011;3799;47.184;8.538;2023-11-19T01:20:34;1.65;;;0.60;;
7515;SDS011;3799;47.184;8.538;2023-11-19T01:23:01;2.17;;;0.73;;
7515;SDS011;3799;47.184;8.538;2023-11-19T01:25:29;2.80;;;0.93;;
7515;SDS011;3799;47.184;8.538;2023-11-19T01:27:56;2.58;;;0.98;;
7515;SDS011;3799;47.184;8.538;2023-11-19T01:30:25;1.42;;;0.73;;
7515;SDS011;3799;47.184;8.538;2023-11-19T01:32:52;1.92;;;0.90;;
7515;SDS011;3799;47.184;8.538;2023-11-19T01:35:20;2.00;;;0.88;;
7515;SDS011;3799;47.184;8.538;2023-11-19T01:40:20;1.90;;;0.93;;
7515;SDS011;3799;47.184;8.538;2023-11-19T01:42:47;2.08;;;0.65;;
7515;SDS011;3799;47.184;8.538;2023-11-19T01:45:22;3.70;;;1.10;;
7515;SDS011;3799;47.184;8.538;2023-11-19T01:47:58;2.35;;;1.25;;
7515;SDS011;3799;47.184;8.538;2023-11-19T01:50:27;2.38;;;1.17;;
7515;SDS011;3799;47.184;8.538;2023-11-19T01:52:55;2.35;;;1.10;;
7515;SDS011;3799;47.184;8.538;2023-11-19T01:55:26;2.17;;;0.98;;
7515;SDS011;3799;47.184;8.538;2023-11-19T01:57:59;2.63;;;1.10;;
7515;SDS011;3799;47.184;8.538;2023-11-19T02:00:28;3.65;;;1.52;;
7515;SDS011;3799;47.184;8.538;2023-11-19T02:02:55;2.95;;;1.20;;
7515;SDS011;3799;47.184;8.538;2023-11-19T02:05:24;2.47;;;1.08;;
7515;SDS011;3799;47.184;8.538;2023-11-19T02:07:51;2.72;;;1.20;;
7515;SDS011;3799;47.184;8.538;2023-11-19T02:10:18;2.55;;;1.20;;
7515;SDS011;3799;47.184;8.538;2023-11-19T02:12:46;3.42;;;1.48;;
7515;SDS011;3799;47.184;8.538;2023-11-19T02:15:13;2.17;;;1.05;;
7515;SDS011;3799;47.184;8.538;2023-11-19T02:17:40;2.90;;;1.30;;
7515;SDS011;3799;47.184;8.538;2023-11-19T02:20:08;2.45;;;1.35;;
7515;SDS011;3799;47.184;8.538;2023-11-19T02:22:39;3.13;;;1.55;;
7515;SDS011;3799;47.184;8.538;2023-11-19T02:25:12;3.42;;;1.65;;
7515;SDS011;3799;47.184;8.538;2023-11-19T02:27:58;3.88;;;2.15;;
7515;SDS011;3799;47.184;8.538;2023-11-19T02:30:27;2.95;;;1.45;;
7515;SDS011;3799;47.184;8.538;2023-11-19T02:32:55;3.95;;;1.67;;
7515;SDS011;3799;47.184;8.538;2023-11-19T02:35:25;4.63;;;2.38;;
7515;SDS011;3799;47.184;8.538;2023-11-19T02:37:54;3.03;;;2.00;;
7515;SDS011;3799;47.184;8.538;2023-11-19T02:40:21;3.00;;;1.58;;
7515;SDS011;3799;47.184;8.538;2023-11-19T02:42:51;3.55;;;2.05;;
7515;SDS011;3799;47.184;8.538;2023-11-19T02:45:19;3.67;;;1.98;;
7515;SDS011;3799;47.184;8.538;2023-11-19T02:47:46;3.70;;;1.92;;
7515;SDS011;3799;47.184;8.538;2023-11-19T02:50:14;3.75;;;1.77;;
7515;SDS011;3799;47.184;8.538;2023-11-19T02:52:41;4.80;;;2.20;;
7515;SDS011;3799;47.184;8.538;2023-11-19T02:55:10;4.28;;;1.80;;
7515;SDS011;3799;47.184;8.538;2023-11-19T02:57:41;2.92;;;1.73;;
7515;SDS011;3799;47.184;8.538;2023-11-19T03:00:15;3.30;;;1.63;;
7515;SDS011;3799;47.184;8.538;2023-11-19T03:02:50;3.67;;;1.70;;
7515;SDS011;3799;47.184;8.538;2023-11-19T03:05:26;3.13;;;1.48;;
7515;SDS011;3799;47.184;8.538;2023-11-19T03:07:57;3.05;;;1.50;;
7515;SDS011;3799;47.184;8.538;2023-11-19T03:10:24;3.97;;;1.98;;
7515;SDS011;3799;47.184;8.538;2023-11-19T03:12:52;5.53;;;1.80;;
7515;SDS011;3799;47.184;8.538;2023-11-19T03:15:19;2.58;;;1.45;;
7515;SDS011;3799;47.184;8.538;2023-11-19T03:17:47;3.53;;;1.67;;
7515;SDS011;3799;47.184;8.538;2023-11-19T03:20:15;4.05;;;2.15;;
7515;SDS011;3799;47.184;8.538;2023-11-19T03:22:43;3.63;;;1.83;;
7515;SDS011;3799;47.184;8.538;2023-11-19T03:25:10;3.00;;;1.60;;
7515;SDS011;3799;47.184;8.538;2023-11-19T03:27:38;4.38;;;2.10;;
7515;SDS011;3799;47.184;8.538;2023-11-19T03:30:06;4.60;;;1.52;;
7515;SDS011;3799;47.184;8.538;2023-11-19T03:32:33;4.05;;;1.95;;
7515;SDS011;3799;47.184;8.538;2023-11-19T03:35:02;4.07;;;1.88;;
7515;SDS011;3799;47.184;8.538;2023-11-19T03:37:31;5.18;;;1.70;;
7515;SDS011;3799;47.184;8.538;2023-11-19T03:39:59;2.92;;;1.45;;
7515;SDS011;3799;47.184;8.538;2023-11-19T03:42:29;3.95;;;1.63;;
7515;SDS011;3799;47.184;8.538;2023-11-19T03:44:57;3.65;;;1.77;;
7515;SDS011;3799;47.184;8.538;2023-11-19T03:47:24;2.90;;;1.73;;
7515;SDS011;3799;47.184;8.538;2023-11-19T03:49:51;2.47;;;1.48;;
7515;SDS011;3799;47.184;8.538;2023-11-19T03:52:19;4.80;;;1.20;;
7515;SDS011;3799;47.184;8.538;2023-11-19T03:54:46;2.42;;;1.45;;
7515;SDS011;3799;47.184;8.538;2023-11-19T03:57:14;4.10;;;1.33;;
7515;SDS011;3799;47.184;8.538;2023-11-19T03:59:42;3.22;;;1.30;;
7515;SDS011;3799;47.184;8.538;2023-11-19T04:02:10;4.25;;;1.50;;
7515;SDS011;3799;47.184;8.538;2023-11-19T04:04:38;2.80;;;1.10;;
7515;SDS011;3799;47.184;8.538;2023-11-19T04:07:08;3.55;;;1.27;;
7515;SDS011;3799;47.184;8.538;2023-11-19T04:09:35;2.10;;;0.88;;
7515;SDS011;3799;47.184;8.538;2023-11-19T04:12:04;1.58;;;0.85;;
7515;SDS011;3799;47.184;8.538;2023-11-19T04:14:31;2.47;;;0.73;;
7515;SDS011;3799;47.184;8.538;2023-11-19T04:16:59;2.42;;;1.27;;
7515;SDS011;3799;47.184;8.538;2023-11-19T04:19:26;2.53;;;1.08;;
7515;SDS011;3799;47.184;8.538;2023-11-19T04:21:54;2.08;;;0.95;;
7515;SDS011;3799;47.184;8.538;2023-11-19T04:24:21;2.35;;;0.77;;
7515;SDS011;3799;47.184;8.538;2023-11-19T04:26:48;1.75;;;0.70;;
7515;SDS011;3799;47.184;8.538;2023-11-19T04:29:16;1.42;;;0.70;;
7515;SDS011;3799;47.184;8.538;2023-11-19T04:31:43;1.98;;;0.68;;
7515;SDS011;3799;47.184;8.538;2023-11-19T04:34:31;5.70;;;1.13;;
7515;SDS011;3799;47.184;8.538;2023-11-19T04:36:58;2.47;;;0.75;;
7515;SDS011;3799;47.184;8.538;2023-11-19T04:39:39;1.98;;;0.50;;
7515;SDS011;3799;47.184;8.538;2023-11-19T04:42:06;1.63;;;0.60;;
7515;SDS011;3799;47.184;8.538;2023-11-19T04:44:33;2.75;;;0.73;;
7515;SDS011;3799;47.184;8.538;2023-11-19T04:47:00;3.45;;;0.90;;
7515;SDS011;3799;47.184;8.538;2023-11-19T04:49:28;1.65;;;0.70;;
7515;SDS011;3799;47.184;8.538;2023-11-19T04:51:55;1.10;;;0.60;;
7515;SDS011;3799;47.184;8.538;2023-11-19T04:54:22;1.55;;;0.40;;
7515;SDS011;3799;47.184;8.538;2023-11-19T04:56:49;2.03;;;0.43;;
7515;SDS011;3799;47.184;8.538;2023-11-19T04:59:16;2.10;;;0.40;;
7515;SDS011;3799;47.184;8.538;2023-11-19T05:01:46;1.23;;;0.45;;
7515;SDS011;3799;47.184;8.538;2023-11-19T05:04:14;1.70;;;0.47;;
7515;SDS011;3799;47.184;8.538;2023-11-19T05:06:42;1.73;;;0.40;;
7515;SDS011;3799;47.184;8.538;2023-11-19T05:09:09;1.25;;;0.40;;
7515;SDS011;3799;47.184;8.538;2023-11-19T05:11:39;1.13;;;0.43;;
7515;SDS011;3799;47.184;8.538;2023-11-19T05:14:09;0.80;;;0.20;;
7515;SDS011;3799;47.184;8.538;2023-11-19T05:16:39;1.58;;;0.40;;
7515;SDS011;3799;47.184;8.538;2023-11-19T05:21:35;0.55;;;0.17;;
7515;SDS011;3799;47.184;8.538;2023-11-19T05:24:02;1.65;;;0.25;;
7515;SDS011;3799;47.184;8.538;2023-11-19T05:26:32;1.00;;;0.20;;
7515;SDS011;3799;47.184;8.538;2023-11-19T05:29:02;1.35;;;0.52;;
7515;SDS011;3799;47.184;8.538;2023-11-19T05:31:29;1.17;;;0.50;;
7515;SDS011;3799;47.184;8.538;2023-11-19T05:34:01;2.05;;;0.73;;
7515;SDS011;3799;47.184;8.538;2023-11-19T05:36:28;1.45;;;0.73;;
7515;SDS011;3799;47.184;8.538;2023-11-19T05:38:56;3.10;;;0.85;;
7515;SDS011;3799;47.184;8.538;2023-11-19T05:41:23;1.75;;;0.73;;
7515;SDS011;3799;47.184;8.538;2023-11-19T05:43:50;2.25;;;0.90;;
7515;SDS011;3799;47.184;8.538;2023-11-19T05:46:18;1.58;;;0.70;;
7515;SDS011;3799;47.184;8.538;2023-11-19T05:48:46;0.95;;;0.52;;
7515;SDS011;3799;47.184;8.538;2023-11-19T05:51:14;1.42;;;0.43;;
7515;SDS011;3799;47.184;8.538;2023-11-19T05:53:43;1.52;;;0.63;;
7515;SDS011;3799;47.184;8.538;2023-11-19T05:56:12;1.15;;;0.57;;
7515;SDS011;3799;47.184;8.538;2023-11-19T05:58:42;2.72;;;0.75;;
7515;SDS011;3799;47.184;8.538;2023-11-19T06:01:11;1.77;;;0.20;;
7515;SDS011;3799;47.184;8.538;2023-11-19T06:03:42;1.50;;;0.40;;
7515;SDS011;3799;47.184;8.538;2023-11-19T06:06:10;1.58;;;0.50;;
7515;SDS011;3799;47.184;8.538;2023-11-19T06:08:38;1.13;;;0.30;;
7515;SDS011;3799;47.184;8.538;2023-11-19T06:11:14;1.38;;;0.50;;
7515;SDS011;3799;47.184;8.538;2023-11-19T06:13:45;1.10;;;0.38;;
7515;SDS011;3799;47.184;8.538;2023-11-19T06:16:17;3.63;;;0.68;;
7515;SDS011;3799;47.184;8.538;2023-11-19T06:18:45;0.80;;;0.20;;
7515;SDS011;3799;47.184;8.538;2023-11-19T06:21:13;1.05;;;0.28;;
7515;SDS011;3799;47.184;8.538;2023-11-19T06:23:40;2.65;;;0.65;;
7515;SDS011;3799;47.184;8.538;2023-11-19T06:26:10;0.88;;;0.20;;
7515;SDS011;3799;47.184;8.538;2023-11-19T06:28:37;1.30;;;0.38;;
7515;SDS011;3799;47.184;8.538;2023-11-19T06:31:05;1.50;;;0.47;;
7515;SDS011;3799;47.184;8.538;2023-11-19T06:33:33;1.48;;;0.50;;
7515;SDS011;3799;47.184;8.538;2023-11-19T06:36:03;1.65;;;0.60;;
7515;SDS011;3799;47.184;8.538;2023-11-19T06:38:31;1.13;;;0.40;;
7515;SDS011;3799;47.184;8.538;2023-11-19T06:40:58;0.82;;;0.30;;
7515;SDS011;3799;47.184;8.538;2023-11-19T06:43:30;2.78;;;0.30;;
7515;SDS011;3799;47.184;8.538;2023-11-19T06:46:15;1.50;;;0.57;;
7515;SDS011;3799;47.184;8.538;2023-11-19T06:48:46;1.30;;;0.60;;
7515;SDS011;3799;47.184;8.538;2023-11-19T06:51:13;1.38;;;0.50;;
7515;SDS011;3799;47.184;8.538;2023-11-19T06:53:44;0.85;;;0.30;;
7515;SDS011;3799;47.184;8.538;2023-11-19T06:56:22;1.15;;;0.40;;
7515;SDS011;3799;47.184;8.538;2023-11-19T06:58:56;1.00;;;0.30;;
7515;SDS011;3799;47.184;8.538;2023-11-19T07:01:23;1.45;;;0.68;;
7515;SDS011;3799;47.184;8.538;2023-11-19T07:03:57;1.15;;;0.38;;
7515;SDS011;3799;47.184;8.538;2023-11-19T07:06:24;0.47;;;0.10;;
7515;SDS011;3799;47.184;8.538;2023-11-19T07:08:57;0.57;;;0.20;;
7515;SDS011;3799;47.184;8.538;2023-11-19T07:11:25;1.30;;;0.38;;
7515;SDS011;3799;47.184;8.538;2023-11-19T07:13:58;1.05;;;0.30;;
7515;SDS011;3799;47.184;8.538;2023-11-19T07:16:27;1.23;;;0.55;;
7515;SDS011;3799;47.184;8.538;2023-11-19T07:18:54;1.77;;;0.63;;
7515;SDS011;3799;47.184;8.538;2023-11-19T07:21:22;1.42;;;0.65;;
7515;SDS011;3799;47.184;8.538;2023-11-19T07:23:49;1.85;;;0.60;;
7515;SDS011;3799;47.184;8.538;2023-11-19T07:26:18;3.65;;;0.80;;
7515;SDS011;3799;47.184;8.538;2023-11-19T07:28:48;2.88;;;1.13;;
7515;SDS011;3799;47.184;8.538;2023-11-19T07:31:16;2.58;;;1.00;;
7515;SDS011;3799;47.184;8.538;2023-11-19T07:33:46;1.58;;;0.70;;
7515;SDS011;3799;47.184;8.538;2023-11-19T07:36:14;2.42;;;0.70;;
7515;SDS011;3799;47.184;8.538;2023-11-19T07:38:42;1.65;;;0.70;;
7515;SDS011;3799;47.184;8.538;2023-11-19T07:41:09;1.23;;;0.30;;
7515;SDS011;3799;47.184;8.538;2023-11-19T07:43:39;1.58;;;0.60;;
7515;SDS011;3799;47.184;8.538;2023-11-19T07:46:16;1.38;;;0.65;;
7515;SDS011;3799;47.184;8.538;2023-11-19T07:48:46;1.67;;;0.65;;
7515;SDS011;3799;47.184;8.538;2023-11-19T07:51:16;1.77;;;0.82;;
7515;SDS011;3799;47.184;8.538;2023-11-19T07:53:43;1.85;;;0.52;;
7515;SDS011;3799;47.184;8.538;2023-11-19T07:56:10;1.08;;;0.35;;
7515;SDS011;3799;47.184;8.538;2023-11-19T07:58:38;2.22;;;0.52;;
7515;SDS011;3799;47.184;8.538;2023-11-19T08:01:05;0.80;;;0.30;;
7515;SDS011;3799;47.184;8.538;2023-11-19T08:03:33;0.98;;;0.30;;
7515;SDS011;3799;47.184;8.538;2023-11-19T08:06:02;1.23;;;0.30;;
7515;SDS011;3799;47.184;8.538;2023-11-19T08:08:30;1.15;;;0.30;;
7515;SDS011;3799;47.184;8.538;2023-11-19T08:10:59;1.00;;;0.20;;
7515;SDS011;3799;47.184;8.538;2023-11-19T08:13:27;0.93;;;0.30;;
7515;SDS011;3799;47.184;8.538;2023-11-19T08:15:54;0.82;;;0.20;;
7515;SDS011;3799;47.184;8.538;2023-11-19T08:18:22;1.38;;;0.40;;
7515;SDS011;3799;47.184;8.538;2023-11-19T08:20:51;1.67;;;0.52;;
7515;SDS011;3799;47.184;8.538;2023-11-19T08:23:20;1.70;;;0.55;;
7515;SDS011;3799;47.184;8.538;2023-11-19T08:25:47;1.58;;;0.82;;
7515;SDS011;3799;47.184;8.538;2023-11-19T08:28:14;4.35;;;1.45;;
7515;SDS011;3799;47.184;8.538;2023-11-19T08:30:42;3.42;;;1.35;;
7515;SDS011;3799;47.184;8.538;2023-11-19T08:33:10;2.03;;;0.80;;
7515;SDS011;3799;47.184;8.538;2023-11-19T08:35:38;1.70;;;0.85;;
7515;SDS011;3799;47.184;8.538;2023-11-19T08:38:05;2.40;;;1.23;;
7515;SDS011;3799;47.184;8.538;2023-11-19T08:40:33;3.00;;;0.85;;
7515;SDS011;3799;47.184;8.538;2023-11-19T08:43:00;1.63;;;0.70;;
7515;SDS011;3799;47.184;8.538;2023-11-19T08:45:28;1.83;;;0.70;;
7515;SDS011;3799;47.184;8.538;2023-11-19T08:47:55;1.50;;;0.70;;
7515;SDS011;3799;47.184;8.538;2023-11-19T08:50:22;1.77;;;0.93;;
7515;SDS011;3799;47.184;8.538;2023-11-19T08:52:50;2.22;;;0.98;;
7515;SDS011;3799;47.184;8.538;2023-11-19T08:55:17;1.92;;;0.77;;
7515;SDS011;3799;47.184;8.538;2023-11-19T08:57:45;3.67;;;0.90;;
7515;SDS011;3799;47.184;8.538;2023-11-19T09:00:13;2.10;;;0.90;;
7515;SDS011;3799;47.184;8.538;2023-11-19T09:02:43;1.65;;;0.63;;
7515;SDS011;3799;47.184;8.538;2023-11-19T09:05:10;1.13;;;0.52;;
7515;SDS011;3799;47.184;8.538;2023-11-19T09:07:38;0.60;;;0.30;;
7515;SDS011;3799;47.184;8.538;2023-11-19T09:10:07;1.23;;;0.40;;
7515;SDS011;3799;47.184;8.538;2023-11-19T09:12:35;1.38;;;0.43;;
7515;SDS011;3799;47.184;8.538;2023-11-19T09:15:02;1.13;;;0.57;;
7515;SDS011;3799;47.184;8.538;2023-11-19T09:17:29;1.70;;;0.40;;
7515;SDS011;3799;47.184;8.538;2023-11-19T09:19:57;2.17;;;0.88;;
7515;SDS011;3799;47.184;8.538;2023-11-19T09:22:24;1.42;;;0.77;;
7515;SDS011;3799;47.184;8.538;2023-11-19T09:24:52;1.60;;;0.73;;
7515;SDS011;3799;47.184;8.538;2023-11-19T09:27:19;1.92;;;0.82;;
7515;SDS011;3799;47.184;8.538;2023-11-19T09:29:47;1.77;;;0.82;;
7515;SDS011;3799;47.184;8.538;2023-11-19T09:32:16;4.43;;;1.08;;
7515;SDS011;3799;47.184;8.538;2023-11-19T09:34:43;2.10;;;0.85;;
7515;SDS011;3799;47.184;8.538;2023-11-19T09:37:11;1.13;;;0.50;;
7515;SDS011;3799;47.184;8.538;2023-11-19T09:39:41;1.52;;;0.38;;
7515;SDS011;3799;47.184;8.538;2023-11-19T09:42:11;1.27;;;0.52;;
7515;SDS011;3799;47.184;8.538;2023-11-19T09:44:39;1.88;;;0.50;;
7515;SDS011;3799;47.184;8.538;2023-11-19T09:47:08;0.80;;;0.28;;
7515;SDS011;3799;47.184;8.538;2023-11-19T09:49:36;1.00;;;0.20;;
7515;SDS011;3799;47.184;8.538;2023-11-19T09:52:05;0.75;;;0.20;;
7515;SDS011;3799;47.184;8.538;2023-11-19T09:54:33;5.72;;;0.38;;
7515;SDS011;3799;47.184;8.538;2023-11-19T09:57:00;1.50;;;0.30;;
7515;SDS011;3799;47.184;8.538;2023-11-19T09:59:32;1.15;;;0.25;;
7515;SDS011;3799;47.184;8.538;2023-11-19T10:02:00;0.52;;;0.20;;
7515;SDS011;3799;47.184;8.538;2023-11-19T10:04:29;1.25;;;0.20;;
7515;SDS011;3799;47.184;8.538;2023-11-19T10:06:59;1.40;;;0.28;;
7515;SDS011;3799;47.184;8.538;2023-11-19T10:09:26;1.05;;;0.32;;
7515;SDS011;3799;47.184;8.538;2023-11-19T10:11:53;2.35;;;1.00;;
7515;SDS011;3799;47.184;8.538;2023-11-19T10:14:22;2.88;;;1.55;;
7515;SDS011;3799;47.184;8.538;2023-11-19T10:16:50;3.72;;;1.60;;
7515;SDS011;3799;47.184;8.538;2023-11-19T10:19:21;3.83;;;1.42;;
7515;SDS011;3799;47.184;8.538;2023-11-19T10:21:48;4.43;;;2.25;;
7515;SDS011;3799;47.184;8.538;2023-11-19T10:24:15;5.50;;;2.30;;
7515;SDS011;3799;47.184;8.538;2023-11-19T10:26:46;3.22;;;1.90;;
7515;SDS011;3799;47.184;8.538;2023-11-19T10:29:13;5.22;;;2.47;;
7515;SDS011;3799;47.184;8.538;2023-11-19T10:31:41;3.80;;;2.47;;
7515;SDS011;3799;47.184;8.538;2023-11-19T10:34:43;4.63;;;2.60;;
7515;SDS011;3799;47.184;8.538;2023-11-19T10:37:26;4.47;;;2.17;;
7515;SDS011;3799;47.184;8.538;2023-11-19T10:39:56;4.45;;;1.80;;
7515;SDS011;3799;47.184;8.538;2023-11-19T10:42:24;3.70;;;1.95;;
7515;SDS011;3799;47.184;8.538;2023-11-19T10:44:51;4.95;;;2.35;;
7515;SDS011;3799;47.184;8.538;2023-11-19T10:47:18;4.47;;;2.42;;
7515;SDS011;3799;47.184;8.538;2023-11-19T10:50:04;2.70;;;1.50;;
7515;SDS011;3799;47.184;8.538;2023-11-19T10:52:32;5.25;;;1.95;;
7515;SDS011;3799;47.184;8.538;2023-11-19T10:55:00;3.35;;;1.58;;
7515;SDS011;3799;47.184;8.538;2023-11-19T10:57:31;3.22;;;1.55;;
7515;SDS011;3799;47.184;8.538;2023-11-19T11:00:03;2.67;;;1.02;;
7515;SDS011;3799;47.184;8.538;2023-11-19T11:02:40;2.28;;;0.95;;
7515;SDS011;3799;47.184;8.538;2023-11-19T11:05:13;4.07;;;1.80;;
7515;SDS011;3799;47.184;8.538;2023-11-19T11:07:41;4.20;;;2.33;;
7515;SDS011;3799;47.184;8.538;2023-11-19T11:10:11;3.83;;;2.20;;
7515;SDS011;3799;47.184;8.538;2023-11-19T11:12:39;3.67;;;1.45;;
7515;SDS011;3799;47.184;8.538;2023-11-19T11:15:08;4.05;;;1.77;;
7515;SDS011;3799;47.184;8.538;2023-11-19T11:17:41;3.03;;;1.35;;
7515;SDS011;3799;47.184;8.538;2023-11-19T11:20:10;2.70;;;1.23;;
7515;SDS011;3799;47.184;8.538;2023-11-19T11:22:45;1.65;;;0.50;;
7515;SDS011;3799;47.184;8.538;2023-11-19T11:28:43;1.55;;;0.68;;
7515;SDS011;3799;47.184;8.538;2023-11-19T11:37:18;2.97;;;1.75;;
7515;SDS011;3799;47.184;8.538;2023-11-19T11:40:05;4.00;;;2.33;;
7515;SDS011;3799;47.184;8.538;2023-11-19T11:42:37;3.22;;;2.17;;
7515;SDS011;3799;47.184;8.538;2023-11-19T11:45:11;4.75;;;2.35;;
7515;SDS011;3799;47.184;8.538;2023-11-19T11:57:53;5.63;;;2.75;;
7515;SDS011;3799;47.184;8.538;2023-11-19T12:00:30;3.83;;;2.20;;
7515;SDS011;3799;47.184;8.538;2023-11-19T12:03:00;3.78;;;2.25;;
7515;SDS011;3799;47.184;8.538;2023-11-19T12:05:29;3.88;;;2.17;;
7515;SDS011;3799;47.184;8.538;2023-11-19T12:08:00;3.33;;;1.98;;
7515;SDS011;3799;47.184;8.538;2023-11-19T12:10:36;3.38;;;1.67;;
7515;SDS011;3799;47.184;8.538;2023-11-19T12:13:05;3.03;;;1.65;;
7515;SDS011;3799;47.184;8.538;2023-11-19T12:18:25;3.30;;;1.20;;
7515;SDS011;3799;47.184;8.538;2023-11-19T12:20:54;2.00;;;1.10;;
7515;SDS011;3799;47.184;8.538;2023-11-19T12:23:22;4.13;;;2.03;;
7515;SDS011;3799;47.184;8.538;2023-11-19T12:25:50;6.65;;;2.65;;
7515;SDS011;3799;47.184;8.538;2023-11-19T12:28:17;4.30;;;2.50;;
7515;SDS011;3799;47.184;8.538;2023-11-19T12:30:45;4.65;;;2.47;;
7515;SDS011;3799;47.184;8.538;2023-11-19T12:33:14;5.60;;;2.90;;
7515;SDS011;3799;47.184;8.538;2023-11-19T12:35:45;5.30;;;2.67;;
7515;SDS011;3799;47.184;8.538;2023-11-19T12:38:23;6.53;;;2.20;;
7515;SDS011;3799;47.184;8.538;2023-11-19T12:43:31;4.50;;;2.88;;
7515;SDS011;3799;47.184;8.538;2023-11-19T12:46:22;5.18;;;3.15;;
7515;SDS011;3799;47.184;8.538;2023-11-19T12:48:51;4.90;;;2.50;;
7515;SDS011;3799;47.184;8.538;2023-11-19T12:51:18;4.75;;;2.75;;
7515;SDS011;3799;47.184;8.538;2023-11-19T12:53:50;4.80;;;2.85;;
7515;SDS011;3799;47.184;8.538;2023-11-19T12:56:22;3.67;;;1.73;;
7515;SDS011;3799;47.184;8.538;2023-11-19T12:58:49;2.70;;;1.27;;
7515;SDS011;3799;47.184;8.538;2023-11-19T13:01:17;3.63;;;1.60;;
7515;SDS011;3799;47.184;8.538;2023-11-19T13:03:46;2.22;;;1.00;;
7515;SDS011;3799;47.184;8.538;2023-11-19T13:06:15;1.42;;;0.50;;
7515;SDS011;3799;47.184;8.538;2023-11-19T13:08:44;1.17;;;0.50;;
7515;SDS011;3799;47.184;8.538;2023-11-19T13:11:13;1.95;;;0.73;;
7515;SDS011;3799;47.184;8.538;2023-11-19T13:16:38;2.05;;;0.70;;
7515;SDS011;3799;47.184;8.538;2023-11-19T13:19:06;2.05;;;0.80;;
7515;SDS011;3799;47.184;8.538;2023-11-19T13:21:33;2.63;;;0.95;;
7515;SDS011;3799;47.184;8.538;2023-11-19T13:24:00;4.93;;;0.90;;
7515;SDS011;3799;47.184;8.538;2023-11-19T13:26:27;2.13;;;0.70;;
7515;SDS011;3799;47.184;8.538;2023-11-19T13:28:54;2.00;;;1.02;;
7515;SDS011;3799;47.184;8.538;2023-11-19T13:31:22;2.60;;;1.20;;
7515;SDS011;3799;47.184;8.538;2023-11-19T13:33:49;3.38;;;1.38;;
7515;SDS011;3799;47.184;8.538;2023-11-19T13:36:16;3.17;;;1.30;;
7515;SDS011;3799;47.184;8.538;2023-11-19T13:38:44;1.98;;;0.88;;
7515;SDS011;3799;47.184;8.538;2023-11-19T13:41:11;1.75;;;1.00;;
7515;SDS011;3799;47.184;8.538;2023-11-19T13:43:40;1.80;;;1.13;;
7515;SDS011;3799;47.184;8.538;2023-11-19T13:46:07;2.97;;;0.95;;
7515;SDS011;3799;47.184;8.538;2023-11-19T13:48:37;2.33;;;0.93;;
7515;SDS011;3799;47.184;8.538;2023-11-19T13:51:05;3.10;;;0.85;;
7515;SDS011;3799;47.184;8.538;2023-11-19T13:53:32;1.65;;;0.73;;
7515;SDS011;3799;47.184;8.538;2023-11-19T13:58:30;1.85;;;0.65;;
7515;SDS011;3799;47.184;8.538;2023-11-19T14:00:58;1.42;;;0.45;;
7515;SDS011;3799;47.184;8.538;2023-11-19T14:03:25;1.60;;;0.52;;
7515;SDS011;3799;47.184;8.538;2023-11-19T14:05:52;1.38;;;0.50;;
7515;SDS011;3799;47.184;8.538;2023-11-19T14:08:21;1.63;;;0.65;;
7515;SDS011;3799;47.184;8.538;2023-11-19T14:10:51;1.17;;;0.52;;
7515;SDS011;3799;47.184;8.538;2023-11-19T14:13:22;0.95;;;0.50;;
7515;SDS011;3799;47.184;8.538;2023-11-19T14:15:50;1.08;;;0.25;;
7515;SDS011;3799;47.184;8.538;2023-11-19T14:18:18;1.42;;;0.55;;
7515;SDS011;3799;47.184;8.538;2023-11-19T14:20:45;0.32;;;0.13;;
7515;SDS011;3799;47.184;8.538;2023-11-19T14:23:12;1.48;;;0.85;;
7515;SDS011;3799;47.184;8.538;2023-11-19T14:25:40;1.25;;;0.30;;
7515;SDS011;3799;47.184;8.538;2023-11-19T14:28:07;0.75;;;0.28;;
7515;SDS011;3799;47.184;8.538;2023-11-19T14:30:34;1.83;;;0.63;;
7515;SDS011;3799;47.184;8.538;2023-11-19T14:33:01;0.52;;;0.20;;
7515;SDS011;3799;47.184;8.538;2023-11-19T14:35:30;1.13;;;0.30;;
7515;SDS011;3799;47.184;8.538;2023-11-19T14:37:59;0.57;;;0.30;;
7515;SDS011;3799;47.184;8.538;2023-11-19T14:40:26;0.70;;;0.20;;
7515;SDS011;3799;47.184;8.538;2023-11-19T14:42:57;1.40;;;0.28;;
7515;SDS011;3799;47.184;8.538;2023-11-19T14:45:27;1.50;;;0.40;;
7515;SDS011;3799;47.184;8.538;2023-11-19T14:47:56;1.15;;;0.45;;
7515;SDS011;3799;47.184;8.538;2023-11-19T14:50:23;0.50;;;0.20;;
7515;SDS011;3799;47.184;8.538;2023-11-19T14:52:51;1.00;;;0.17;;
7515;SDS011;3799;47.184;8.538;2023-11-19T14:55:18;1.00;;;0.28;;
7515;SDS011;3799;47.184;8.538;2023-11-19T14:57:45;0.80;;;0.35;;
7515;SDS011;3799;47.184;8.538;2023-11-19T15:00:26;0.60;;;0.30;;
7515;SDS011;3799;47.184;8.538;2023-11-19T15:02:54;1.13;;;0.32;;
7515;SDS011;3799;47.184;8.538;2023-11-19T15:05:21;1.80;;;0.40;;
7515;SDS011;3799;47.184;8.538;2023-11-19T15:07:49;1.35;;;0.40;;
7515;SDS011;3799;47.184;8.538;2023-11-19T15:10:16;0.65;;;0.30;;
7515;SDS011;3799;47.184;8.538;2023-11-19T15:12:43;1.38;;;0.50;;
7515;SDS011;3799;47.184;8.538;2023-11-19T15:15:12;2.03;;;0.40;;
7515;SDS011;3799;47.184;8.538;2023-11-19T15:18:01;0.85;;;0.40;;
7515;SDS011;3799;47.184;8.538;2023-11-19T15:20:29;0.85;;;0.22;;
7515;SDS011;3799;47.184;8.538;2023-11-19T15:22:57;0.93;;;0.35;;
7515;SDS011;3799;47.184;8.538;2023-11-19T15:25:24;0.50;;;0.20;;
7515;SDS011;3799;47.184;8.538;2023-11-19T15:27:52;2.78;;;0.90;;
7515;SDS011;3799;47.184;8.538;2023-11-19T15:30:19;1.45;;;0.25;;
7515;SDS011;3799;47.184;8.538;2023-11-19T15:32:46;0.20;;;0.00;;
7515;SDS011;3799;47.184;8.538;2023-11-19T15:35:16;1.20;;;0.20;;
7515;SDS011;3799;47.184;8.538;2023-11-19T15:37:43;1.58;;;0.20;;
7515;SDS011;3799;47.184;8.538;2023-11-19T15:40:11;3.28;;;0.30;;
7515;SDS011;3799;47.184;8.538;2023-11-19T15:42:42;0.47;;;0.10;;
7515;SDS011;3799;47.184;8.538;2023-11-19T15:45:13;0.68;;;0.20;;
7515;SDS011;3799;47.184;8.538;2023-11-19T15:47:43;0.90;;;0.10;;
7515;SDS011;3799;47.184;8.538;2023-11-19T15:50:10;1.02;;;0.10;;
7515;SDS011;3799;47.184;8.538;2023-11-19T15:52:37;1.20;;;0.00;;
7515;SDS011;3799;47.184;8.538;2023-11-19T15:55:07;1.55;;;0.30;;
7515;SDS011;3799;47.184;8.538;2023-11-19T15:57:34;0.10;;;0.00;;
7515;SDS011;3799;47.184;8.538;2023-11-19T16:00:02;0.38;;;0.10;;
7515;SDS011;3799;47.184;8.538;2023-11-19T16:02:30;0.40;;;0.10;;